EA1QW Weather Reports


Display with metric or nautical units.
time (UTC)temp
F
wind
direction
speed
MPH
gust
MPH
rain 1hr
in
rain 24hr
in
rain mn
in
humidity
%
barometer
mb
20211127025013 52 260 8.0 25.0 0.04 2.20 0.09 81 1005.6
20211127024501 51 263 8.0 14.0 0.00 2.17 0.08 83 1005.4
20211127024009 51 234 6.0 14.0 0.00 2.17 0.08 84 1005.3
20211127023457 51 229 5.0 14.0 0.00 2.17 0.08 85 1005.5
20211127023006 51 245 4.0 11.0 0.00 2.17 0.08 86 1005.3
20211127022514 51 266 5.0 12.0 0.00 2.17 0.08 86 1005.4
20211127022002 51 232 3.0 12.0 0.00 2.17 0.08 86 1005.2
20211127021510 51 220 4.0 12.0 0.20 2.17 0.08 87 1005.3
20211127021014 51 252 3.0 10.0 0.20 2.17 0.08 87 1005.4
20211127020503 51 246 4.0 10.0 0.24 2.17 0.08 87 1005.5
20211127020006 51 234 4.0 10.0 0.24 2.17 0.08 88 1005.5
20211127015514 51 235 4.0 10.0 0.24 2.17 0.08 87 1005.4
20211127015008 51 197 4.0 16.0 0.24 2.17 0.08 88 1005.6
20211127014505 51 235 4.0 16.0 0.24 2.17 0.08 88 1005.7
20211127013957 51 298 4.0 16.0 0.24 2.17 0.08 88 1005.8
20211127013505 51 265 6.0 17.0 0.24 2.17 0.08 88 1005.9
20211127013012 51 243 6.0 18.0 0.24 2.17 0.08 89 1006.1
20211127012457 51 263 10.0 24.0 0.24 2.17 0.08 88 1006.2
20211127012006 51 250 15.0 23.0 0.24 2.17 0.08 89 1005.9
20211127011514 50 235 7.0 14.0 0.04 1.97 0.04 89 1005.8
20211127010957 50 212 5.0 11.0 0.04 1.93 0.03 89 1005.8
20211127010505 50 263 6.0 11.0 0.08 1.93 0.03 89 1005.8
20211127010009 50 231 4.0 12.0 0.16 2.48 0.03 89 1005.9
20211127005458 50 242 6.0 12.0 0.28 2.48 0.03 93 1006.1
20211127005006 50 223 3.0 11.0 0.31 2.48 0.03 90 1006.2
20211127004515 50 235 5.0 11.0 0.35 2.48 0.03 90 1006.2
20211127004001 50 247 4.0 9.0 0.39 2.48 0.03 90 1006.6
20211127003514 50 236 3.0 9.0 0.39 2.48 0.03 91 1006.7
20211127003002 51 223 4.0 9.0 0.43 2.48 0.03 91 1006.7
20211127002511 51 200 4.0 9.0 0.43 2.48 0.03 91 1006.7
20211127002014 51 219 5.0 12.0 0.43 2.48 0.03 91 1006.8
20211127001502 50 219 7.0 15.0 0.47 2.48 0.03 91 1006.6
20211127001010 50 265 8.0 16.0 0.47 2.44 0.02 91 1006.8
20211127000459 50 250 8.0 18.0 0.43 2.40 0.02 91 1006.8
20211127000011 50 250 8.0 18.0 0.35 2.44 0.46 91 1006.8
20211126235458 50 259 7.0 18.0 0.31 2.36 0.44 91 1006.9
20211126235006 50 246 10.0 18.0 0.31 2.32 0.43 92 1006.9
20211126234458 49 246 6.0 12.0 0.28 2.28 0.43 92 1007.0
20211126233958 49 220 6.0 12.0 0.31 2.24 0.42 91 1007.1
20211126233507 49 232 3.0 8.0 0.35 2.20 0.41 91 1006.9
20211126233009 49 218 4.0 8.0 0.39 2.20 0.41 91 1007.0
20211126232501 49 199 3.0 8.0 0.43 2.20 0.41 91 1007.0
20211126232010 49 208 2.0 7.0 0.43 2.20 0.41 91 1007.1
20211126231459 49 183 3.0 9.0 0.39 2.17 0.40 91 1007.2
20211126231006 49 211 4.0 9.0 0.43 2.13 0.39 91 1007.2
20211126230507 49 223 4.0 11.0 0.51 2.13 0.39 91 1007.1
20211126230012 49 252 4.0 11.0 0.51 2.09 0.39 90 1007.2
20211126225500 49 194 1.0 6.0 0.51 2.05 0.38 90 1007.3
20211126225006 49 195 1.0 8.0 0.51 2.01 0.37 90 1007.5
20211126224514 49 190 1.0 8.0 0.51 2.01 0.37 90 1007.6
20211126223958 49 221 3.0 9.0 0.39 1.89 0.35 90 1007.8
20211126223506 49 196 4.0 9.0 0.35 1.85 0.34 90 1007.8
20211126223013 49 205 3.0 10.0 0.31 1.81 0.33 90 1007.9
20211126222501 49 232 5.0 10.0 0.28 1.77 0.32 90 1007.8
20211126222009 49 213 5.0 16.0 0.28 1.77 0.32 89 1007.9
20211126221458 49 184 6.0 15.0 0.24 1.73 0.31 89 1007.6
20211126221001 49 196 2.0 7.0 0.20 1.69 0.31 89 1007.9
20211126220510 49 200 3.0 8.0 0.12 1.61 0.29 89 1007.9
20211126220011 49 195 4.0 11.0 0.08 1.57 0.28 89 1007.9
20211126215459 49 196 5.0 11.0 0.04 1.54 0.28 88 1008.1
20211126215008 48 252 3.0 10.0 0.00 1.50 0.27 88 1008.1
20211126214456 48 194 3.0 8.0 0.00 1.50 0.27 88 1008.2
20211126213959 49 233 3.0 10.0 0.00 1.50 0.27 88 1008.2
20211126213507 49 183 5.0 10.0 0.00 1.50 0.27 88 1008.3
20211126213012 49 169 3.0 9.0 0.04 1.50 0.27 88 1008.3
20211126212500 49 200 4.0 9.0 0.08 1.50 0.27 88 1008.4
20211126212009 48 198 3.0 8.0 0.08 1.50 0.27 88 1008.5
20211126211457 48 190 3.0 8.0 0.08 1.50 0.27 88 1008.5
20211126210958 48 186 3.0 11.0 0.08 1.50 0.27 88 1008.6
20211126210506 49 213 4.0 11.0 0.08 1.50 0.27 88 1008.6
20211126210003 49 202 4.0 9.0 0.08 1.69 0.27 88 1008.6
20211126205511 49 179 3.0 11.0 0.08 1.69 0.27 88 1008.6
20211126205014 49 197 5.0 11.0 0.08 1.69 0.27 87 1008.6
20211126204502 49 202 3.0 7.0 0.08 1.69 0.27 87 1008.7
20211126204011 49 167 4.0 8.0 0.08 1.69 0.27 87 1008.7
20211126203459 49 188 1.0 10.0 0.08 1.69 0.27 87 1008.8
20211126203013 49 192 4.0 10.0 0.04 1.65 0.26 87 1008.8
20211126202501 49 207 5.0 8.0 0.00 1.61 0.25 87 1008.8
20211126202010 49 192 3.0 11.0 0.04 1.61 0.25 87 1008.9
20211126201458 49 229 5.0 11.0 0.04 1.61 0.25 87 1008.8
20211126200958 49 188 5.0 10.0 0.04 1.61 0.25 87 1008.8
20211126200506 49 212 3.0 9.0 0.04 1.61 0.25 87 1008.9
20211126200012 49 260 5.0 9.0 0.08 1.65 0.25 87 1009.0
20211126195501 49 232 4.0 13.0 0.08 1.65 0.25 86 1009.0
20211126195008 49 233 2.0 13.0 0.08 1.65 0.25 86 1009.2
20211126194457 49 197 4.0 11.0 0.08 1.65 0.25 86 1009.4
20211126194015 48 211 4.0 11.0 0.08 1.65 0.25 86 1009.4
20211126193503 48 231 5.0 9.0 0.08 1.65 0.25 86 1009.4
20211126193011 48 235 4.0 10.0 0.08 1.65 0.25 87 1009.4
20211126192459 48 209 3.0 10.0 0.08 1.65 0.25 86 1009.4
20211126192008 48 222 5.0 10.0 0.04 1.61 0.24 86 1009.3
20211126191500 48 198 3.0 10.0 0.08 1.61 0.24 86 1009.3
20211126191004 48 215 4.0 10.0 0.12 1.61 0.24 86 1009.3
20211126190513 48 213 3.0 10.0 0.12 1.61 0.24 86 1009.4
20211126185959 48 179 5.0 10.0 0.12 1.57 0.24 86 1009.6
20211126185507 48 213 5.0 12.0 0.12 1.57 0.24 86 1009.7
20211126185015 48 209 6.0 12.0 0.12 1.57 0.24 85 1009.6
20211126184503 48 211 6.0 11.0 0.12 1.57 0.24 85 1009.7
20211126184011 48 227 3.0 11.0 0.12 1.57 0.24 86 1009.8
20211126183500 48 227 4.0 11.0 0.12 1.57 0.24 85 1009.8
20211126183001 49 208 4.0 6.0 0.16 1.57 0.24 85 1009.8
20211126182507 49 212 3.0 10.0 0.16 1.57 0.24 85 1009.8
20211126182012 49 255 5.0 11.0 0.16 1.57 0.24 84 1009.9
20211126181500 49 203 5.0 11.0 0.12 1.54 0.23 84 1010.0
20211126181002 49 237 6.0 11.0 0.08 1.50 0.22 83 1010.0
20211126180508 49 234 4.0 11.0 0.08 1.50 0.22 82 1010.2
20211126180008 49 193 6.0 11.0 0.04 1.69 0.21 81 1010.3
20211126175457 49 211 4.0 11.0 0.04 1.69 0.21 80 1010.1
20211126174959 50 204 5.0 11.0 0.04 1.69 0.21 80 1010.0
20211126174507 50 240 4.0 8.0 0.04 1.69 0.21 79 1010.0
20211126174014 50 209 3.0 9.0 0.04 1.69 0.21 79 1009.9
20211126173502 50 204 5.0 9.0 0.04 1.69 0.21 78 1010.0
20211126173011 50 222 4.0 8.0 0.00 1.65 0.20 78 1010.2
20211126172459 50 208 3.0 9.0 0.00 1.65 0.20 78 1010.3
20211126172007 50 202 4.0 12.0 0.00 1.65 0.20 78 1010.3
20211126171516 50 202 5.0 12.0 0.00 1.65 0.20 78 1010.3
20211126170958 50 232 6.0 12.0 0.00 1.65 0.20 77 1010.1
20211126170507 50 236 6.0 12.0 0.00 1.65 0.20 76 1010.2
20211126170009 50 219 4.0 12.0 0.00 1.77 0.20 76 1010.2
20211126165458 50 187 3.0 13.0 0.00 1.77 0.20 76 1010.1
20211126165007 50 240 4.0 10.0 0.00 1.77 0.20 76 1010.1
20211126164515 50 218 4.0 14.0 0.00 1.77 0.20 76 1010.1
20211126164003 50 221 7.0 14.0 0.00 1.77 0.20 76 1010.2
20211126163512 50 213 7.0 14.0 0.00 1.77 0.20 76 1010.4
20211126163013 50 221 7.0 11.0 0.00 1.77 0.20 77 1010.4
20211126162501 50 238 6.0 10.0 0.00 1.77 0.20 77 1010.4
20211126162009 51 240 3.0 8.0 0.00 1.77 0.20 77 1010.4
20211126161458 51 232 3.0 10.0 0.00 1.77 0.20 77 1010.4
20211126161001 51 208 4.0 10.0 0.00 1.77 0.20 76 1010.6
20211126160510 51 198 5.0 10.0 0.00 1.77 0.20 76 1010.7
20211126160012 51 218 4.0 10.0 0.00 2.01 0.20 76 1010.6
20211126155500 51 234 4.0 11.0 0.00 2.01 0.20 76 1010.7
20211126155008 51 194 4.0 8.0 0.00 2.01 0.20 77 1010.7
20211126154457 51 205 2.0 9.0 0.00 2.01 0.20 77 1010.8
20211126154011 51 238 3.0 10.0 0.00 2.01 0.20 77 1010.9
20211126153459 51 193 5.0 10.0 0.00 2.01 0.20 76 1010.8
20211126153008 51 202 4.0 10.0 0.00 2.01 0.20 76 1010.9
20211126152515 51 180 5.0 10.0 0.00 2.01 0.20 76 1010.9
20211126152025 51 215 5.0 11.0 0.00 2.01 0.20 74 1011.0
20211126151512 52 229 7.0 11.0 0.00 2.01 0.20 73 1011.1
20211126150956 52 240 5.0 11.0 0.00 2.01 0.20 73 1011.3
20211126150505 52 225 6.0 11.0 0.00 2.01 0.20 72 1011.3
20211126150029 52 231 6.0 11.0 0.00 2.05 0.20 72 1011.4
20211126145516 52 212 5.0 10.0 0.00 2.05 0.20 73 1011.4
20211126145025 52 226 5.0 10.0 0.04 2.05 0.20 73 1011.4
20211126144513 52 224 4.0 10.0 0.04 2.05 0.20 74 1011.5
20211126144014 52 225 5.0 10.0 0.04 2.05 0.20 76 1011.5
20211126143524 52 221 4.0 9.0 0.04 2.05 0.20 76 1011.7
20211126143010 51 221 2.0 9.0 0.04 2.05 0.20 79 1011.8
20211126142457 51 214 4.0 11.0 0.04 2.05 0.20 79 1011.9
20211126142006 51 228 4.0 11.0 0.04 2.05 0.20 79 1012.0
20211126141514 51 194 4.0 8.0 0.04 2.05 0.20 79 1012.0
20211126141018 51 221 4.0 8.0 0.04 2.05 0.20 79 1012.1
20211126140505 51 229 4.0 7.0 0.04 2.05 0.20 79 1012.3
20211126140006 51 221 3.0 9.0 0.04 2.05 0.20 78 1012.3
20211126135515 51 232 5.0 13.0 0.04 2.05 0.20 77 1012.3
20211126135000 51 266 3.0 13.0 0.00 2.01 0.20 77 1012.5
20211126134509 51 224 5.0 10.0 0.00 2.01 0.20 78 1012.6
20211126134014 51 210 5.0 11.0 0.00 2.01 0.20 78 1012.7
20211126133503 51 254 6.0 11.0 0.00 2.01 0.20 77 1012.8
20211126133011 51 236 4.0 11.0 0.04 2.01 0.20 80 1013.0
20211126132459 51 191 5.0 11.0 0.04 2.01 0.20 79 1013.1
20211126132001 51 194 8.0 12.0 0.04 2.01 0.20 79 1013.2
20211126131508 51 205 4.0 12.0 0.08 2.01 0.20 81 1013.3
20211126131013 51 228 5.0 10.0 0.08 2.01 0.20 82 1013.4
20211126130501 50 202 5.0 10.0 0.08 2.01 0.20 83 1013.5
20211126130004 50 208 2.0 9.0 0.08 2.05 0.20 86 1013.6
20211126125512 50 198 4.0 11.0 0.08 2.05 0.20 86 1013.8
20211126125013 49 180 6.0 10.0 0.08 2.05 0.20 86 1013.9
20211126124500 49 214 5.0 9.0 0.08 2.05 0.20 87 1014.0
20211126124008 48 202 3.0 8.0 0.12 2.05 0.20 86 1014.1
20211126123536 48 171 1.0 6.0 0.12 2.05 0.20 86 1014.1
20211126123003 48 206 2.0 6.0 0.12 2.01 0.19 86 1014.2
20211126122457 48 202 2.0 6.0 0.20 2.01 0.19 86 1014.1
20211126122005 48 209 2.0 5.0 0.24 2.01 0.19 86 1014.1
20211126121513 48 207 1.0 6.0 0.24 1.97 0.18 86 1014.2
20211126121018 48 158 2.0 6.0 0.24 1.97 0.18 86 1014.4
20211126120505 48 196 2.0 6.0 0.28 1.97 0.18 86 1014.4
20211126120008 48 174 2.0 6.0 0.28 2.24 0.18 85 1014.5
20211126115457 48 164 2.0 5.0 0.28 2.24 0.18 85 1014.6
20211126115005 48 162 0.0 3.0 0.28 2.24 0.18 85 1014.7
20211126114514 48 162 1.0 3.0 0.28 2.24 0.18 84 1014.7
20211126113958 48 162 0.0 6.0 0.24 2.20 0.17 84 1014.8
20211126113506 49 162 2.0 7.0 0.24 2.20 0.17 84 1014.9
20211126113013 49 220 2.0 10.0 0.20 2.17 0.17 83 1015.0
20211126112501 49 227 4.0 10.0 0.12 2.09 0.15 82 1015.1
20211126112009 49 198 3.0 11.0 0.12 2.05 0.14 81 1015.2
20211126111457 49 239 3.0 11.0 0.08 2.01 0.13 81 1015.1
20211126110959 49 208 6.0 11.0 0.08 2.01 0.13 81 1014.9
20211126110507 49 194 2.0 7.0 0.04 1.97 0.13 81 1014.9
20211126110007 49 211 3.0 7.0 0.04 2.44 0.13 82 1015.1
20211126105515 49 157 4.0 6.0 0.04 2.44 0.13 82 1015.2
20211126105003 49 184 1.0 5.0 0.04 2.44 0.13 83 1015.4
20211126104532 48 192 1.0 5.0 0.04 2.44 0.13 85 1015.4
20211126104013 48 157 2.0 5.0 0.04 2.44 0.13 85 1015.5
20211126103501 48 215 0.0 4.0 0.04 2.44 0.13 84 1015.5
20211126103008 48 250 0.0 8.0 0.04 2.44 0.13 84 1015.6
20211126102457 48 253 3.0 8.0 0.04 2.44 0.13 83 1015.5
20211126102005 48 222 5.0 9.0 0.00 2.40 0.12 83 1015.6
20211126101514 48 220 3.0 8.0 0.00 2.40 0.12 83 1015.5
20211126101018 48 219 3.0 7.0 0.04 2.40 0.12 84 1015.5
20211126100505 47 196 3.0 8.0 0.04 2.40 0.12 85 1015.4
20211126100010 47 211 3.0 8.0 0.04 2.56 0.12 85 1015.5
20211126095518 47 207 2.0 7.0 0.04 2.56 0.12 86 1015.5
20211126095005 47 202 3.0 6.0 0.04 2.56 0.12 86 1015.6
20211126094459 47 201 0.0 5.0 0.04 2.56 0.12 87 1015.5
20211126094001 47 200 1.0 6.0 0.04 2.56 0.12 87 1015.6
20211126093509 47 207 3.0 6.0 0.04 2.56 0.12 87 1015.6
20211126093013 46 206 1.0 4.0 0.04 2.56 0.12 87 1015.6
20211126092523 46 173 0.0 3.0 0.04 2.56 0.12 87 1015.6
20211126092010 46 77 0.0 1.0 0.04 2.56 0.12 87 1015.6
20211126091458 46 77 0.0 2.0 0.04 2.56 0.12 87 1015.5
20211126091016 46 77 0.0 2.0 0.00 2.52 0.11 87 1015.6
20211126090505 46 77 0.0 0.0 0.00 2.52 0.11 88 1015.6
20211126090012 46 77 0.0 0.0 0.00 2.60 0.11 88 1015.5
20211126085521 46 77 0.0 0.0 0.00 2.60 0.11 88 1015.5
20211126085008 45 77 0.0 0.0 0.00 2.60 0.11 88 1015.5
20211126084516 45 77 0.0 0.0 0.00 2.60 0.11 88 1015.6
20211126084035 45 77 0.0 0.0 0.00 2.60 0.11 88 1015.6
20211126083524 45 77 0.0 0.0 0.00 2.60 0.11 88 1015.6
20211126083010 45 77 0.0 0.0 0.00 2.60 0.11 88 1015.6
20211126082457 45 77 0.0 0.0 0.00 2.60 0.11 88 1015.4
20211126082006 45 77 0.0 0.0 0.00 2.60 0.11 88 1015.4
20211126081514 45 77 0.0 1.0 0.00 2.60 0.11 88 1015.4
20211126081003 45 77 0.0 1.0 0.00 2.60 0.11 88 1015.3
20211126080510 45 77 0.0 0.0 0.00 2.60 0.11 87 1015.3
20211126080035 45 77 0.0 0.0 0.00 2.60 0.11 87 1015.4
20211126075502 45 77 0.0 0.0 0.00 3.07 0.11 87 1015.4
20211126075011 45 77 0.0 0.0 0.00 3.07 0.11 87 1015.5
20211126074459 45 77 0.0 2.0 0.00 3.07 0.11 86 1015.4
20211126074005 45 77 0.0 2.0 0.00 3.07 0.11 86 1015.4
20211126073534 46 77 0.0 0.0 0.00 3.07 0.11 86 1015.3
20211126073034 46 77 0.0 2.0 0.00 3.07 0.11 85 1015.3
20211126072501 46 77 0.0 3.0 0.00 3.07 0.11 85 1015.3
20211126072008 46 77 1.0 3.0 0.00 3.07 0.11 84 1015.3
20211126071457 46 77 0.0 2.0 0.00 3.07 0.11 83 1015.4
20211126071005 47 77 1.0 3.0 0.00 3.07 0.11 83 1015.3
20211126070514 47 77 2.0 4.0 0.00 3.07 0.11 82 1015.3
20211126070001 47 76 3.0 4.0 0.00 3.15 0.11 81 1015.3
20211126065510 48 348 0.0 2.0 0.00 3.15 0.11 80 1015.3
20211126065015 48 331 1.0 2.0 0.00 3.15 0.11 79 1015.4
20211126064516 49 331 0.0 2.0 0.00 3.15 0.11 76 1015.3
20211126064014 49 331 0.0 3.0 0.00 3.15 0.11 73 1015.3
20211126063503 49 331 0.0 4.0 0.00 3.15 0.11 71 1015.3
20211126063011 49 329 0.0 3.0 0.00 3.15 0.11 67 1015.3
20211126062500 49 335 0.0 5.0 0.00 3.15 0.11 66 1015.3
20211126062008 49 335 2.0 5.0 0.00 3.15 0.11 66 1015.3
20211126061536 49 306 1.0 8.0 0.00 3.15 0.11 67 1015.2
20211126061003 49 346 1.0 9.0 0.00 3.15 0.11 66 1015.3
20211126060510 49 360 3.0 5.0 0.00 3.15 0.11 67 1015.2
20211126060010 49 327 0.0 6.0 0.00 3.15 0.11 68 1015.2
20211126055458 49 341 1.0 8.0 0.00 3.15 0.11 67 1015.3
20211126055006 49 355 2.0 10.0 0.00 3.15 0.11 68 1015.1
20211126054515 49 309 1.0 10.0 0.00 3.15 0.11 70 1015.1
20211126054014 48 342 3.0 12.0 0.00 3.15 0.11 73 1015.3
20211126053501 48 23 5.0 12.0 0.00 3.15 0.11 75 1015.2
20211126053010 47 15 5.0 11.0 0.00 3.15 0.11 77 1015.3
20211126052458 47 327 1.0 10.0 0.00 3.15 0.11 81 1015.2
20211126052006 47 13 2.0 10.0 0.00 3.15 0.11 87 1015.2
20211126051515 47 300 2.0 9.0 0.00 3.15 0.11 90 1015.2
20211126050959 47 42 0.0 3.0 0.00 3.15 0.11 91 1015.2
20211126050506 47 67 0.0 0.0 0.00 3.15 0.11 92 1015.3
20211126050027 47 67 0.0 3.0 0.00 3.43 0.11 92 1015.3
20211126045514 47 67 0.0 3.0 0.00 3.43 0.11 92 1015.4
20211126045002 47 66 0.0 3.0 0.00 3.43 0.11 92 1015.4
20211126044510 47 66 0.0 3.0 0.00 3.43 0.11 92 1015.3
20211126044014 47 66 1.0 2.0 0.00 3.43 0.11 91 1015.2
20211126043503 47 66 0.0 3.0 0.00 3.43 0.11 91 1015.3
20211126043011 47 71 1.0 3.0 0.00 3.43 0.11 91 1015.4
20211126042459 47 73 0.0 2.0 0.00 3.43 0.11 91 1015.3
20211126042008 47 73 0.0 2.0 0.00 3.43 0.11 91 1015.3
20211126041500 47 73 0.0 0.0 0.00 3.43 0.11 91 1015.2
20211126041004 47 73 0.0 0.0 0.00 3.43 0.11 91 1015.2
20211126040513 47 73 0.0 2.0 0.00 3.43 0.11 91 1015.2
20211126035957 47 73 0.0 2.0 0.00 3.82 0.11 91 1015.2
20211126035505 47 73 0.0 3.0 0.00 3.82 0.11 91 1015.3
20211126035013 47 73 0.0 3.0 0.00 3.82 0.11 91 1015.3
20211126034502 47 5 0.0 1.0 0.00 3.82 0.11 91 1015.3
20211126034030 47 5 0.0 0.0 0.00 3.82 0.11 91 1015.3
20211126033503 47 5 0.0 1.0 0.00 3.82 0.11 91 1015.3
20211126033032 47 5 0.0 1.0 0.00 3.82 0.11 91 1015.3
20211126032459 47 5 0.0 0.0 0.00 3.82 0.11 91 1015.4
20211126032007 47 5 0.0 2.0 0.00 3.82 0.11 91 1015.3
20211126031532 47 5 0.0 2.0 0.00 3.82 0.11 91 1015.3
20211126031016 47 5 0.0 2.0 0.00 3.82 0.11 91 1015.3
20211126030505 47 5 1.0 2.0 0.00 3.82 0.11 91 1015.3
20211126030030 47 5 0.0 2.0 0.00 3.86 0.11 90 1015.4
20211126025537 47 5 0.0 2.0 0.00 3.86 0.11 90 1015.4